KVRB/VRB METAR and TAF weather

Enter ICAO airport designator
Station Type Date Time Source
KVRB METAR 2019/04/18 21:53 UTC NOAA

KVRB 182153Z 14019G28KT 8SM SCT025 27/22 A2994 RMK AO2 PK WND 15028/2152 SLP136 T02720217


Station Type Date Time Source
KVRB Decoded METAR 2019/04/18 21:53 UTC NOAA

VERO BEACH MUNICIPAL AIRPORT , FL, United States (KVRB) 27-39N 080-25W 10M
Apr 18, 2019 - 05:53 PM EDT / 2019.04.18 2153 UTC
Wind: from the SE (140 degrees) at 22 MPH (19 KT) gusting to 32 MPH (28 KT):0
Visibility: 8 mile(s):0
Sky conditions: partly cloudy
Temperature: 81.0 F (27.2 C)
Dew Point: 71.1 F (21.7 C)
Relative Humidity: 71%
Pressure (altimeter): 29.94 in. Hg (1013 hPa)
ob: KVRB 182153Z 14019G28KT 8SM SCT025 27/22 A2994 RMK AO2 PK WND 15028/2152 SLP136 T02720217
cycle: 22

Station Type Date Time Source
KVRB TAF 2019/04/18 18:24 UTC NOAA

TAF KVRB 181720Z 1818/1918 13014G22KT P6SM FEW025 SCT035 SCT070
FM190200 14012KT P6SM FEW050 SCT080
FM190900 17011G17KT P6SM VCSH SCT030 BKN080
FM191400 18018G27KT P6SM FEW025 SCT040 BKN250

Example: see airport list